createdAt,value
2023-04-28T00:00:48.537Z,2.97
2023-04-28T00:05:50.470Z,2.86
2023-04-28T00:10:52.399Z,2.69
2023-04-28T00:15:54.681Z,2.63
2023-04-28T00:20:56.889Z,2.64
2023-04-28T00:25:58.810Z,2.71
2023-04-28T00:31:00.869Z,2.91
2023-04-28T00:36:02.753Z,3.09
2023-04-28T00:41:06.028Z,3.26
2023-04-28T00:46:07.998Z,3.35
2023-04-28T00:51:09.925Z,3.40
2023-04-28T00:56:12.398Z,3.35
2023-04-28T01:01:14.526Z,3.34
2023-04-28T01:06:17.448Z,3.39
2023-04-28T01:11:19.630Z,3.42
2023-04-28T01:16:39.659Z,3.52
2023-04-28T01:21:41.924Z,3.60
2023-04-28T01:26:55.947Z,3.65
2023-04-28T01:31:57.963Z,3.73
2023-04-28T01:36:59.870Z,3.89
2023-04-28T01:42:02.596Z,3.94
2023-04-28T01:47:04.694Z,3.86
2023-04-28T01:52:09.845Z,3.66
2023-04-28T01:57:11.798Z,3.38
2023-04-28T02:02:14.055Z,3.12
2023-04-28T02:07:16.061Z,3.09
2023-04-28T02:12:17.967Z,3.10
2023-04-28T02:17:19.873Z,3.14
2023-04-28T02:22:21.862Z,3.24
2023-04-28T02:27:23.738Z,3.44
2023-04-28T02:32:25.622Z,3.57
2023-04-28T02:37:27.628Z,3.74
2023-04-28T02:42:29.600Z,3.87
2023-04-28T02:47:31.628Z,3.95
2023-04-28T02:52:33.581Z,3.99
2023-04-28T02:57:35.614Z,4.07
2023-04-28T03:02:38.729Z,4.15
2023-04-28T03:07:40.840Z,4.21
2023-04-28T03:12:42.660Z,4.26
2023-04-28T03:17:44.645Z,4.24
2023-04-28T03:22:46.546Z,4.25
2023-04-28T03:27:48.404Z,4.20
2023-04-28T03:32:50.603Z,4.07
2023-04-28T03:37:52.551Z,4.06
2023-04-28T03:42:54.532Z,4.12
2023-04-28T03:48:02.495Z,4.24
2023-04-28T03:53:05.190Z,4.32
2023-04-28T03:58:08.297Z,4.34
2023-04-28T04:03:10.580Z,4.36
2023-04-28T04:08:12.832Z,4.38
2023-04-28T04:13:14.697Z,4.41
2023-04-28T04:18:19.190Z,4.46
2023-04-28T04:23:47.358Z,4.39
2023-04-28T04:28:49.556Z,4.34
2023-04-28T04:33:51.846Z,4.27
2023-04-28T04:38:55.725Z,4.22
2023-04-28T04:43:57.926Z,4.28
2023-04-28T04:49:05.028Z,4.51
2023-04-28T04:54:07.222Z,4.85
2023-04-28T04:59:11.995Z,5.21
2023-04-28T05:04:25.359Z,5.59
2023-04-28T05:09:27.602Z,5.98
2023-04-28T05:14:29.490Z,6.43
2023-04-28T05:19:31.611Z,6.71
2023-04-28T05:24:33.727Z,6.90
2023-04-28T05:29:37.393Z,7.04
2023-04-28T05:34:39.350Z,7.20
2023-04-28T05:39:41.266Z,7.46
2023-04-28T05:44:43.324Z,7.69
2023-04-28T05:49:45.701Z,7.94
2023-04-28T05:54:47.591Z,8.19
2023-04-28T05:59:49.563Z,8.54
2023-04-28T06:04:51.644Z,8.98
2023-04-28T06:09:54.114Z,9.11
2023-04-28T06:14:56.114Z,9.19
2023-04-28T06:20:00.763Z,9.81
2023-04-28T06:25:02.807Z,10.32
2023-04-28T06:30:10.409Z,10.68
2023-04-28T06:35:12.558Z,10.86
2023-04-28T06:40:14.626Z,11.22
2023-04-28T06:45:22.435Z,11.66
2023-04-28T06:50:24.650Z,12.11
2023-04-28T06:55:26.943Z,12.37
2023-04-28T07:00:28.922Z,12.69
2023-04-28T07:05:30.890Z,13.20
2023-04-28T07:10:32.727Z,13.69
2023-04-28T07:15:35.116Z,13.75
2023-04-28T07:20:37.283Z,13.77
2023-04-28T07:25:40.881Z,13.92
2023-04-28T07:30:42.803Z,14.18
2023-04-28T07:35:44.787Z,14.15
2023-04-28T07:40:47.131Z,14.49
2023-04-28T07:45:49.741Z,14.72
2023-04-28T07:50:51.770Z,14.75
2023-04-28T07:55:55.130Z,14.70
2023-04-28T08:00:57.187Z,14.74
2023-04-28T08:05:59.572Z,15.02
2023-04-28T08:11:02.015Z,14.79
2023-04-28T08:16:04.013Z,14.17
2023-04-28T08:21:06.047Z,14.10
2023-04-28T08:26:07.967Z,13.94
2023-04-28T08:31:09.833Z,14.49
2023-04-28T08:36:15.205Z,15.02
2023-04-28T08:41:17.265Z,14.85
2023-04-28T08:46:21.877Z,14.80
2023-04-28T08:51:33.952Z,14.56
2023-04-28T08:56:36.157Z,14.02
2023-04-28T09:01:38.258Z,13.67
2023-04-28T09:06:40.700Z,14.08
2023-04-28T09:12:04.166Z,14.37
2023-04-28T09:17:13.798Z,14.06
2023-04-28T09:22:26.415Z,14.08
2023-04-28T09:27:29.593Z,13.40
2023-04-28T09:32:31.849Z,13.23
2023-04-28T09:37:35.833Z,13.28
2023-04-28T09:42:39.519Z,13.16
2023-04-28T09:47:43.158Z,13.15
2023-04-28T09:52:57.004Z,12.71
2023-04-28T09:58:06.164Z,12.55
2023-04-28T10:03:09.833Z,11.99
2023-04-28T10:08:13.423Z,11.66
2023-04-28T10:13:19.734Z,11.64
2023-04-28T10:18:23.771Z,11.65
2023-04-28T10:23:44.770Z,11.85
2023-04-28T10:28:52.151Z,12.18
2023-04-28T10:33:54.712Z,12.01
2023-04-28T10:39:11.178Z,11.65
2023-04-28T10:44:28.404Z,11.51
2023-04-28T10:49:55.211Z,11.31
2023-04-28T10:55:32.988Z,11.35
2023-04-28T11:00:34.949Z,11.53
2023-04-28T11:05:36.828Z,11.32
2023-04-28T11:11:16.928Z,11.28
2023-04-28T11:16:22.150Z,11.22
2023-04-28T11:21:25.998Z,11.30
2023-04-28T11:26:28.359Z,11.41
2023-04-28T11:31:30.208Z,11.36
2023-04-28T11:36:37.098Z,11.54
2023-04-28T11:41:48.798Z,11.73
2023-04-28T11:47:03.170Z,12.02
2023-04-28T11:52:07.216Z,12.46
2023-04-28T11:57:18.448Z,12.63
2023-04-28T12:02:30.980Z,12.70
2023-04-28T12:07:42.664Z,12.73
2023-04-28T12:12:52.052Z,12.84
2023-04-28T12:17:55.123Z,13.31
2023-04-28T12:22:57.037Z,12.75
2023-04-28T12:28:03.839Z,13.17
2023-04-28T12:33:05.989Z,13.52
2023-04-28T12:38:11.846Z,13.26
2023-04-28T12:43:13.663Z,12.96
2023-04-28T12:48:15.571Z,12.57
2023-04-28T12:53:19.632Z,13.23
2023-04-28T12:58:21.470Z,13.71
2023-04-28T13:03:23.466Z,13.55
2023-04-28T13:08:25.358Z,12.79
2023-04-28T13:13:27.211Z,12.51
2023-04-28T13:18:30.194Z,12.03
2023-04-28T13:23:32.056Z,11.88
2023-04-28T13:28:34.210Z,11.86
2023-04-28T13:33:36.103Z,11.56
2023-04-28T13:38:37.974Z,11.56
2023-04-28T13:43:39.877Z,11.61
2023-04-28T13:48:41.996Z,11.32
2023-04-28T13:53:43.831Z,11.30
2023-04-28T13:58:45.710Z,11.10
2023-04-28T14:03:47.690Z,11.11
2023-04-28T14:08:49.591Z,11.46
2023-04-28T14:13:51.432Z,11.78
2023-04-28T14:18:53.244Z,12.30
2023-04-28T14:23:55.129Z,11.83
2023-04-28T14:28:57.089Z,11.65
2023-04-28T14:33:59.199Z,11.64
2023-04-28T14:39:01.468Z,11.46
2023-04-28T14:44:03.406Z,11.77
2023-04-28T14:49:06.102Z,12.08
2023-04-28T14:54:09.707Z,12.73
2023-04-28T14:59:11.676Z,12.86
2023-04-28T15:04:13.667Z,12.55
2023-04-28T15:09:15.835Z,12.55
2023-04-28T15:14:18.431Z,12.61
2023-04-28T15:19:20.447Z,12.69
2023-04-28T15:24:22.323Z,12.45
2023-04-28T15:29:24.131Z,12.36
2023-04-28T15:34:26.011Z,12.23
2023-04-28T15:39:28.601Z,12.11
2023-04-28T15:44:30.992Z,12.06
2023-04-28T15:49:32.862Z,12.16
2023-04-28T15:54:34.710Z,12.23
2023-04-28T15:59:36.604Z,12.09
2023-04-28T16:04:38.999Z,12.14
2023-04-28T16:09:41.203Z,12.02
2023-04-28T16:19:44.917Z,11.87
2023-04-28T16:24:47.482Z,11.99
2023-04-28T16:29:50.020Z,11.83
2023-04-28T16:34:52.458Z,11.73
2023-04-28T16:39:54.681Z,11.57
2023-04-28T16:44:56.646Z,11.51
2023-04-28T16:49:58.477Z,11.48
2023-04-28T16:55:00.567Z,11.38
2023-04-28T17:00:02.516Z,11.30
2023-04-28T17:05:07.011Z,11.27
2023-04-28T17:10:09.400Z,11.22
2023-04-28T17:15:15.265Z,11.10
2023-04-28T17:20:18.219Z,10.92
2023-04-28T17:25:23.430Z,10.85
2023-04-28T17:30:26.071Z,10.76
2023-04-28T17:35:28.043Z,10.76
2023-04-28T17:40:29.867Z,10.76
2023-04-28T17:45:34.708Z,10.72
2023-04-28T17:50:36.686Z,10.73
2023-04-28T17:55:38.546Z,10.75
2023-04-28T18:00:40.677Z,10.64
2023-04-28T18:05:42.691Z,10.60
2023-04-28T18:10:44.516Z,10.55
2023-04-28T18:15:46.403Z,10.57
2023-04-28T18:20:48.245Z,10.44
2023-04-28T18:25:50.074Z,10.33
2023-04-28T18:30:51.815Z,10.35
2023-04-28T18:36:01.622Z,10.45
2023-04-28T18:41:16.648Z,10.59
2023-04-28T18:46:18.676Z,10.84
2023-04-28T18:51:20.934Z,10.69
2023-04-28T18:56:23.794Z,10.66
2023-04-28T19:01:27.375Z,10.66
2023-04-28T19:06:29.780Z,10.60
2023-04-28T19:11:32.067Z,10.62
2023-04-28T19:16:36.768Z,10.59
2023-04-28T19:21:41.911Z,10.52
2023-04-28T19:26:43.744Z,10.51
2023-04-28T19:31:45.838Z,10.52
2023-04-28T19:36:47.682Z,10.53
2023-04-28T19:41:50.692Z,10.56
2023-04-28T19:46:52.562Z,10.39
2023-04-28T19:51:54.484Z,10.05
2023-04-28T19:56:56.545Z,9.78
2023-04-28T20:01:58.792Z,9.65
2023-04-28T20:07:00.734Z,9.68
2023-04-28T20:12:07.897Z,9.78
2023-04-28T20:17:09.840Z,9.91
2023-04-28T20:22:11.648Z,9.97
2023-04-28T20:27:13.777Z,10.15
2023-04-28T20:32:15.621Z,10.21
2023-04-28T20:37:19.948Z,10.17
2023-04-28T20:42:22.112Z,10.01
2023-04-28T20:47:24.060Z,9.93
2023-04-28T20:52:26.022Z,9.86
2023-04-28T20:57:27.835Z,9.65
2023-04-28T21:02:29.791Z,9.62
2023-04-28T21:07:33.671Z,9.42
2023-04-28T21:12:36.180Z,9.16
2023-04-28T21:17:38.034Z,8.88
2023-04-28T21:22:39.825Z,8.76
2023-04-28T21:27:41.692Z,8.78
2023-04-28T21:32:43.537Z,8.73
2023-04-28T21:37:45.574Z,8.71
2023-04-28T21:42:47.405Z,8.69
2023-04-28T21:47:49.260Z,8.83
2023-04-28T21:52:51.598Z,8.89
2023-04-28T21:57:54.187Z,8.79
2023-04-28T22:02:57.894Z,8.65
2023-04-28T22:08:01.575Z,8.66
2023-04-28T22:13:04.072Z,8.93
2023-04-28T22:18:07.834Z,8.79
2023-04-28T22:23:09.692Z,8.90
2023-04-28T22:28:11.546Z,9.08
2023-04-28T22:33:13.411Z,9.02
2023-04-28T22:38:15.352Z,9.02
2023-04-28T22:43:17.465Z,8.94
2023-04-28T22:48:19.400Z,8.53
2023-04-28T22:53:21.301Z,8.18
2023-04-28T22:58:23.160Z,8.22
2023-04-28T23:03:25.118Z,8.35
2023-04-28T23:08:27.038Z,8.49
2023-04-28T23:13:28.908Z,8.54
2023-04-28T23:18:32.982Z,8.54
2023-04-28T23:23:34.851Z,8.57
2023-04-28T23:28:36.618Z,8.72
2023-04-28T23:33:38.441Z,8.79
2023-04-28T23:38:40.343Z,9.15
2023-04-28T23:43:42.211Z,9.38
2023-04-28T23:48:44.075Z,9.35
2023-04-28T23:53:45.930Z,9.21
2023-04-28T23:58:47.750Z,9.04
